Mumbai, India

12:24 PM IST on October 01, 2014 (GMT +0530)
Chhatrapati Shivaji International | Change Station
CLOSE
Current Station
Airport
Location: Mumbai,
Elevation: 46 ft
Nearby Weather Stations

Elev 46 ft 19.10 °N, 72.86 °E | Updated 14 minutes ago

Haze
Haze
91 °F
Feels Like 102 °F
N
5
Wind Variable Wind from North

Today
High -- | Low -- °F
--% Chance of Precip.
Yesterday
High -- | Low -- °F
Precip. -- in
6:29 AM 6:27 PM
Waxing Crescent, 44% visible
Pressure 29.86 in
Visibility 1.6 miles
Clouds Scattered Clouds 10000 ft
Heat Index 102 °F
Dew Point 75 °F
Humidity 59%
Rainfall 0.00 in
Snow Depth Not available.
UV 13 out of 12
Pollen Not available.
Air Quality Not available.
Flu Activity Not available.
METAR VABB 010640Z 01004KT 2500 HZ SCT100 33/24 Q1011 BECMG 3000 FU

More Conditions Fewer Conditions

Pressure 29.86 in
Visibility 1.6 miles
Clouds Scattered Clouds 10000 ft
Heat Index 102 °F
Dew Point 75 °F
Humidity 59%
Rainfall 0.00 in
Snow Depth Not available.
UV 13 out of 12
Pollen Not available.
Air Quality Not available.
Flu Activity Not available.
METAR VABB 010640Z 01004KT 2500 HZ SCT100 33/24 Q1011 BECMG 3000 FU

More Conditions Fewer Conditions

10-Day Weather Forecast

Almanac

Astronomy

Oct. 01, 2014 Rise Set
Actual Time 6:29 AM IST 6:27 PM IST
Civil Twilight 6:07 AM IST 6:49 PM IST
Nautical Twilight 5:41 AM IST 7:14 PM IST
Astronomical Twilight 5:16 AM IST 7:39 PM IST
Moon 12:31 PM IST 12:04 AM IST (10/2)
Length of Visible Light 12h 41m
Length of Day
11h 58m
Tomorrow will be 1m 3s shorter.
Waxing Crescent, 44% of the Moon is Illuminated
Today
Waxing Crescent
Oct 1
First Quarter
Oct 8
Full
Oct 15
Last Quarter
Oct 23
New

Yesterday's Extremes

Country Highs Country Lows

Community

WunderPhotos

Upload Photos

1,757,886 photos uploaded!

Nearby

Snow Depth

Not available.

Earthquake Activity

City Distance Mag. Time & Date
No recent earthquake activity has been reported nearby.
Minimum magnitude displayed is 2.5.

Coastal Water Temperatures

Place Temperature
No Stations Reporting

Nearby Weather Stations